Time;durP1;ratioP1;P1;durP2;ratioP2;P2;SDS_P1;SDS_P2;PMS_P1;PMS_P2;Temp;Humidity;BMP_temperature;BMP_pressure;BME280_temperature;BME280_humidity;BME280_pressure;Samples;Min_cycle;Max_cycle;Signal;HPM_P1;HPM_P2
2021/11/24 00:01:09;;;;;;;13.45;2.40;;;;;;;7.28;90.91;100574.28;4982015;28;20034;-70
2021/11/24 00:03:34;;;;;;;18.73;2.35;;;;;;;7.27;90.96;100572.53;4966822;29;20033;-71
2021/11/24 00:05:59;;;;;;;9.50;2.10;;;;;;;7.29;90.88;100571.72;4966836;29;20026;-71
2021/11/24 00:08:25;;;;;;;52.33;5.57;;;;;;;7.31;90.82;100572.63;4966733;29;20031;-71
2021/11/24 00:10:50;;;;;;;11.13;2.90;;;;;;;7.43;90.88;100595.06;4966319;28;20034;-70
2021/11/24 00:13:16;;;;;;;14.27;2.88;;;;;;;7.41;90.85;100594.19;4966455;29;20050;-71
2021/11/24 00:15:41;;;;;;;22.67;2.83;;;;;;;7.42;90.90;100587.31;4966526;29;20498;-71
2021/11/24 00:18:07;;;;;;;15.10;2.40;;;;;;;7.42;90.78;100587.31;4966270;29;20056;-71
2021/11/24 00:20:33;;;;;;;20.98;3.60;;;;;;;7.39;90.71;100588.16;4966458;29;20028;-70
2021/11/24 00:22:59;;;;;;;14.02;2.65;;;;;;;7.38;90.61;100583.81;4966253;29;20434;-70
2021/11/24 00:25:24;;;;;;;12.32;1.90;;;;;;;7.32;90.91;100584.66;4966395;29;20023;-71
2021/11/24 00:27:50;;;;;;;16.30;2.10;;;;;;;7.37;90.58;100581.22;4966164;28;20034;-70
2021/11/24 00:30:16;;;;;;;17.33;2.40;;;;;;;7.35;91.18;100585.53;4966102;29;20023;-70
2021/11/24 00:32:41;;;;;;;14.88;2.17;;;;;;;7.21;90.94;100567.34;4966015;29;20023;-70
2021/11/24 00:35:07;;;;;;;19.48;2.97;;;;;;;7.40;90.75;100586.41;4966355;29;20038;-70
2021/11/24 00:37:33;;;;;;;16.48;2.80;;;;;;;7.43;90.80;100591.63;4966114;29;20023;-70
2021/11/24 00:39:59;;;;;;;25.20;2.70;;;;;;;7.28;90.90;100563.97;4966130;29;20031;-70
2021/11/24 00:42:24;;;;;;;21.50;2.67;;;;;;;7.31;90.93;100579.47;4966113;29;20027;-71
2021/11/24 00:44:50;;;;;;;14.63;2.67;;;;;;;7.29;90.98;100571.72;4966027;29;20033;-70
2021/11/24 00:47:16;;;;;;;20.80;2.80;;;;;;;7.40;90.97;100579.56;4966021;29;20027;-71
2021/11/24 00:49:41;;;;;;;9.55;2.60;;;;;;;7.25;90.94;100559.63;4980870;28;20023;-71
2021/11/24 00:52:08;;;;;;;19.83;2.30;;;;;;;7.34;90.93;100564.00;4966044;29;20031;-71
2021/11/24 00:54:33;;;;;;;14.43;2.60;;;;;;;7.31;90.98;100564.00;4965776;29;20050;-71
2021/11/24 00:56:59;;;;;;;12.50;2.72;;;;;;;7.33;90.74;100570.03;4965978;29;20023;-70
2021/11/24 00:59:25;;;;;;;19.27;2.83;;;;;;;7.43;90.82;100579.56;4948219;29;20030;-71
2021/11/24 01:01:50;;;;;;;15.77;3.03;;;;;;;7.41;91.04;100583.84;4965528;29;20034;-72
2021/11/24 01:04:16;;;;;;;17.63;2.85;;;;;;;7.27;90.87;100568.25;4965574;29;20083;-71
2021/11/24 01:06:41;;;;;;;18.88;4.50;;;;;;;7.32;90.92;100565.72;4965625;29;20090;-71
2021/11/24 01:09:07;;;;;;;18.13;3.28;;;;;;;7.42;91.00;100593.34;4965754;29;20055;-75
2021/11/24 01:11:32;;;;;;;25.13;2.97;;;;;;;7.45;90.83;100592.50;4965508;29;20045;-74
2021/11/24 01:13:58;;;;;;;16.92;2.95;;;;;;;7.22;90.99;100562.19;4965431;29;20138;-75
2021/11/24 01:16:24;;;;;;;20.15;3.22;;;;;;;7.24;90.99;100559.59;4948263;29;20023;-75
2021/11/24 01:18:49;;;;;;;11.68;2.55;;;;;;;7.21;90.91;100552.72;4947769;29;20078;-75
2021/11/24 01:21:14;;;;;;;24.63;4.47;;;;;;;7.39;90.97;100588.16;4980404;28;20023;-75
2021/11/24 01:23:40;;;;;;;27.92;4.45;;;;;;;7.41;90.82;100590.75;4965389;29;20062;-75
2021/11/24 01:26:05;;;;;;;22.38;3.15;;;;;;;7.37;91.14;100582.09;4963560;29;20501;-75
2021/11/24 01:28:31;;;;;;;17.05;2.55;;;;;;;7.38;90.90;100576.06;4965415;28;20133;-74
2021/11/24 01:30:56;;;;;;;17.95;2.65;;;;;;;7.30;90.78;100564.84;4965489;29;20027;-74
2021/11/24 01:33:21;;;;;;;15.68;3.63;;;;;;;7.34;90.81;100568.28;4979830;28;20023;-74
2021/11/24 01:35:47;;;;;;;29.38;4.30;;;;;;;7.36;90.95;100567.47;4963897;29;20099;-74
2021/11/24 01:38:12;;;;;;;16.88;2.53;;;;;;;7.36;90.94;100576.94;4965090;29;20445;-75
2021/11/24 01:40:38;;;;;;;8.07;1.45;;;;;;;7.37;91.27;100576.94;4964654;28;20051;-74
2021/11/24 01:43:05;;;;;;;15.75;2.22;;;;;;;7.27;90.99;100551.88;4965004;29;20030;-75
2021/11/24 01:45:31;;;;;;;15.88;3.00;;;;;;;7.41;90.93;100576.09;4965104;29;20027;-74
2021/11/24 01:47:57;;;;;;;18.13;2.50;;;;;;;7.40;91.08;100582.13;4965252;29;20027;-75
2021/11/24 01:50:22;;;;;;;14.52;2.63;;;;;;;7.29;91.03;100552.78;4964978;29;20027;-74
2021/11/24 01:52:48;;;;;;;18.80;3.83;;;;;;;7.22;91.05;100551.00;4965061;29;20025;-74
2021/11/24 01:55:15;;;;;;;18.02;3.50;;;;;;;7.39;91.00;100572.66;4965113;29;20034;-74
2021/11/24 01:57:44;;;;;;;16.08;3.08;;;;;;;7.30;91.06;100542.44;4965053;29;20074;-75
2021/11/24 02:00:10;;;;;;;23.55;3.50;;;;;;;7.40;91.14;100558.00;4964899;29;20019;-74
2021/11/24 02:02:36;;;;;;;28.50;2.85;;;;;;;7.47;91.01;100562.38;4963551;28;20034;-74
2021/11/24 02:05:02;;;;;;;22.45;2.92;;;;;;;7.46;90.89;100555.47;4947651;29;20027;-74
2021/11/24 02:07:27;;;;;;;16.70;2.63;;;;;;;7.50;90.69;100565.00;4965259;29;20031;-74
2021/11/24 02:09:53;;;;;;;25.60;2.25;;;;;;;7.47;90.76;100562.38;4965035;29;20025;-74
2021/11/24 02:12:19;;;;;;;9.93;2.10;;;;;;;7.31;90.78;100520.97;4964936;29;20031;-74
2021/11/24 02:14:45;;;;;;;11.38;2.33;;;;;;;7.43;90.75;100548.56;4964930;29;20023;-74
2021/11/24 02:17:14;;;;;;;19.42;2.38;;;;;;;7.44;90.72;100550.28;4964240;29;20684;-74
2021/11/24 02:19:39;;;;;;;13.75;2.08;;;;;;;7.35;90.77;100528.72;4964666;29;20508;-74
2021/11/24 02:22:04;;;;;;;14.48;1.98;;;;;;;7.39;90.65;100530.47;4964542;29;20027;-74
2021/11/24 02:24:32;;;;;;;18.02;4.13;;;;;;;7.48;90.51;100539.97;4964942;29;20031;-73
2021/11/24 02:26:58;;;;;;;7.97;1.98;;;;;;;7.48;90.70;100529.66;4947569;29;20090;-74
2021/11/24 02:29:24;;;;;;;12.43;2.58;;;;;;;7.47;90.79;100520.19;4979551;28;20030;-73
2021/11/24 02:31:53;;;;;;;22.33;2.65;;;;;;;7.47;90.47;100530.50;4963300;29;20019;-73
2021/11/24 02:34:18;;;;;;;17.05;3.00;;;;;;;7.51;90.58;100540.00;4964610;29;20070;-73
2021/11/24 02:36:44;;;;;;;13.30;2.10;;;;;;;7.43;90.49;100529.63;4964829;29;20027;-74
2021/11/24 02:39:10;;;;;;;22.90;3.05;;;;;;;7.43;90.34;100532.19;4964568;29;20020;-74
2021/11/24 02:41:37;;;;;;;20.50;2.72;;;;;;;7.47;90.33;100528.81;4964437;29;20023;-73
2021/11/24 02:44:28;;;;;;;15.68;2.38;;;;;;;7.44;90.54;100527.03;4964492;29;20023;-74
2021/11/24 02:47:04;;;;;;;17.33;3.00;;;;;;;7.29;90.71;100496.81;4964638;29;20094;-74
2021/11/24 02:49:33;;;;;;;18.77;2.78;;;;;;;7.42;90.58;100513.28;4964491;29;20047;-73
2021/11/24 02:51:58;;;;;;;15.10;2.42;;;;;;;7.45;90.59;100515.00;4964870;28;20039;-73
2021/11/24 02:54:23;;;;;;;16.67;2.72;;;;;;;7.41;90.72;100508.94;4967815;29;20110;-74
2021/11/24 02:56:49;;;;;;;17.85;2.22;;;;;;;7.34;90.78;100499.44;4967785;29;20059;-74
2021/11/24 02:59:14;;;;;;;16.35;3.95;;;;;;;7.38;90.45;100503.75;4982819;28;20027;-74
2021/11/24 03:01:40;;;;;;;12.38;2.22;;;;;;;7.45;90.81;100522.75;4967881;29;20027;-74
2021/11/24 03:04:07;;;;;;;15.40;2.72;;;;;;;7.40;90.69;100511.50;4967809;29;20050;-74
2021/11/24 03:06:32;;;;;;;6.20;1.40;;;;;;;7.29;90.91;100488.22;4967854;29;20183;-76
2021/11/24 03:08:57;;;;;;;19.15;2.30;;;;;;;7.35;90.85;100508.91;4967926;29;20037;-74
2021/11/24 03:11:23;;;;;;;15.05;2.78;;;;;;;7.40;90.95;100520.13;4967285;29;20055;-74
2021/11/24 03:13:48;;;;;;;17.52;3.05;;;;;;;7.33;90.55;100513.22;4967536;29;20495;-75
2021/11/24 03:16:13;;;;;;;17.55;2.63;;;;;;;7.31;90.72;100518.38;4950373;29;20051;-74
2021/11/24 03:18:39;;;;;;;13.05;2.33;;;;;;;7.38;90.55;100514.09;4967240;29;20205;-74
2021/11/24 03:21:04;;;;;;;13.70;2.40;;;;;;;7.30;90.23;100498.53;4950134;29;20031;-74
2021/11/24 03:23:29;;;;;;;22.42;3.03;;;;;;;7.36;90.37;100500.31;4967257;29;20079;-75
2021/11/24 03:25:55;;;;;;;23.95;3.20;;;;;;;7.39;90.59;100509.78;4967031;29;20027;-74
2021/11/24 03:28:20;;;;;;;14.15;2.78;;;;;;;7.25;90.52;100479.56;4966215;29;20023;-74
2021/11/24 03:30:46;;;;;;;11.63;1.73;;;;;;;7.37;90.91;100504.63;4967245;29;20019;-74
2021/11/24 03:33:11;;;;;;;17.23;2.65;;;;;;;7.26;90.59;100478.72;4967489;29;20050;-74
2021/11/24 03:35:36;;;;;;;16.90;2.85;;;;;;;7.31;90.78;100492.53;4967078;29;20472;-75
2021/11/24 03:38:03;;;;;;;13.93;2.67;;;;;;;7.36;90.83;100508.06;4965826;29;20083;-75
2021/11/24 03:40:31;;;;;;;17.95;2.47;;;;;;;7.36;91.03;100495.16;4978884;28;20078;-75
2021/11/24 03:42:57;;;;;;;26.02;3.80;;;;;;;7.38;90.67;100501.16;4963712;29;20070;-75
2021/11/24 03:45:27;;;;;;;15.38;2.40;;;;;;;7.27;90.80;100479.56;4964205;29;20030;-74
2021/11/24 03:47:52;;;;;;;6.93;1.40;;;;;;;7.27;91.14;100474.41;4964066;29;20027;-73
2021/11/24 03:50:18;;;;;;;23.02;4.03;;;;;;;7.35;90.98;100480.50;4964411;29;20249;-74
2021/11/24 03:52:44;;;;;;;17.08;2.63;;;;;;;7.30;90.98;100482.22;4964321;29;20034;-74
2021/11/24 03:55:11;;;;;;;17.83;2.80;;;;;;;7.36;91.26;100495.16;4965115;29;20031;-74
2021/11/24 03:57:36;;;;;;;19.67;2.72;;;;;;;7.36;91.41;100495.16;4966280;29;20055;-74
2021/11/24 04:00:05;;;;;;;19.52;3.50;;;;;;;7.40;91.20;100496.00;4966710;29;20023;-74
2021/11/24 04:02:31;;;;;;;19.30;2.83;;;;;;;7.21;91.43;100464.91;4966649;28;20027;-74
2021/11/24 04:04:56;;;;;;;15.98;2.60;;;;;;;7.32;91.47;100475.31;4966444;29;20463;-74
2021/11/24 04:07:21;;;;;;;21.20;3.13;;;;;;;7.30;91.37;100470.13;4966443;29;20027;-73
2021/11/24 04:09:47;;;;;;;21.67;3.25;;;;;;;7.38;91.38;100480.50;4966514;29;20019;-74
2021/11/24 04:12:13;;;;;;;24.27;2.85;;;;;;;7.34;91.29;100463.28;4966160;29;20033;-74
2021/11/24 04:14:38;;;;;;;19.77;3.65;;;;;;;7.38;91.58;100470.19;4966573;29;20034;-74
2021/11/24 04:17:03;;;;;;;16.33;3.67;;;;;;;7.49;91.35;100484.91;4964753;29;20186;-73
2021/11/24 04:19:29;;;;;;;20.77;4.22;;;;;;;7.57;91.44;100483.22;4966115;29;20407;-74
2021/11/24 04:21:54;;;;;;;17.10;2.58;;;;;;;7.54;91.41;100488.38;4964677;29;20117;-74
2021/11/24 04:24:19;;;;;;;16.25;2.38;;;;;;;7.28;91.13;100433.13;4966150;29;20030;-73
2021/11/24 04:26:45;;;;;;;22.67;3.78;;;;;;;7.59;91.37;100473.72;4966024;29;20039;-74
2021/11/24 04:29:10;;;;;;;21.13;3.38;;;;;;;7.61;91.50;100472.03;4966195;29;20023;-74
2021/11/24 04:31:36;;;;;;;22.65;3.80;;;;;;;7.55;91.33;100456.50;4964578;29;20030;-73
2021/11/24 04:34:01;;;;;;;24.55;3.38;;;;;;;7.48;91.55;100436.66;4966033;29;20024;-73
2021/11/24 04:36:27;;;;;;;16.15;2.90;;;;;;;7.68;91.31;100460.84;4965933;29;20033;-73
2021/11/24 04:38:52;;;;;;;24.55;3.90;;;;;;;7.67;91.50;100453.97;4965773;29;20034;-74
2021/11/24 04:41:17;;;;;;;12.77;2.38;;;;;;;7.74;91.17;100448.81;4965639;29;20456;-74
2021/11/24 04:43:45;;;;;;;20.60;3.05;;;;;;;7.59;91.26;100434.97;4965700;29;20019;-73
2021/11/24 04:46:13;;;;;;;16.25;3.08;;;;;;;7.64;91.56;100437.59;4965643;29;20106;-74
2021/11/24 04:48:38;;;;;;;21.40;2.72;;;;;;;7.68;91.48;100453.09;4965534;29;20508;-74
2021/11/24 04:51:04;;;;;;;22.08;2.60;;;;;;;7.61;91.37;100443.59;4965689;29;20039;-76
2021/11/24 04:53:29;;;;;;;27.63;3.97;;;;;;;7.57;91.43;100445.31;4965476;29;20031;-76
2021/11/24 04:55:55;;;;;;;16.73;2.72;;;;;;;7.62;91.21;100442.75;4965723;29;20027;-74
2021/11/24 04:58:20;;;;;;;27.20;2.95;;;;;;;7.73;91.53;100457.44;4948351;29;20125;-73
2021/11/24 05:00:45;;;;;;;25.45;3.75;;;;;;;7.72;91.00;100458.28;4965570;29;20019;-74
2021/11/24 05:03:11;;;;;;;23.02;3.97;;;;;;;7.62;91.22;100440.16;4965557;29;20055;-73
2021/11/24 05:05:36;;;;;;;17.55;2.60;;;;;;;7.74;91.32;100454.88;4965527;29;20027;-76
2021/11/24 05:08:02;;;;;;;19.80;4.90;;;;;;;7.53;91.18;100428.06;4965419;29;20038;-74
2021/11/24 05:10:28;;;;;;;16.83;2.67;;;;;;;7.65;91.08;100447.94;4965379;29;20337;-74
2021/11/24 05:12:53;;;;;;;17.10;2.88;;;;;;;7.72;91.00;100443.66;4965200;29;20034;-72
2021/11/24 05:15:30;;;;;;;11.20;2.10;;;;;;;7.67;90.91;100430.72;4964681;28;20392;-73
2021/11/24 05:18:00;;;;;;;21.23;2.92;;;;;;;7.62;90.88;100418.66;4965202;29;20067;-75
2021/11/24 05:20:28;;;;;;;18.90;3.75;;;;;;;7.70;90.97;100442.78;4965316;29;20110;-76
2021/11/24 05:22:54;;;;;;;13.15;2.63;;;;;;;7.71;91.05;100453.97;4965206;29;20027;-73
2021/11/24 05:25:19;;;;;;;19.05;2.08;;;;;;;7.66;91.08;100444.50;4965228;29;20027;-74
2021/11/24 05:27:45;;;;;;;15.88;2.45;;;;;;;7.65;91.19;100429.00;4965141;29;20035;-75
2021/11/24 05:30:12;;;;;;;25.65;3.20;;;;;;;7.81;91.03;100450.59;4965364;29;20098;-72
2021/11/24 05:32:38;;;;;;;22.02;2.90;;;;;;;7.83;91.06;100443.69;4965117;29;20038;-73
2021/11/24 05:35:04;;;;;;;21.38;2.60;;;;;;;7.94;91.02;100452.34;4965028;29;20023;-73
2021/11/24 05:37:30;;;;;;;27.52;3.17;;;;;;;7.95;91.10;100445.47;4965081;29;20083;-74
2021/11/24 05:39:55;;;;;;;18.50;3.38;;;;;;;8.08;90.91;100448.94;4965064;29;20023;-72
2021/11/24 05:42:21;;;;;;;16.52;2.10;;;;;;;7.96;90.95;100443.72;4964555;29;20180;-74
2021/11/24 05:44:49;;;;;;;15.60;4.10;;;;;;;8.05;91.00;100448.94;4964919;29;20027;-72
2021/11/24 05:49:59;;;;;;;15.57;2.75;;;;;;;8.17;90.72;100451.56;4964915;29;20033;-71
2021/11/24 05:52:25;;;;;;;19.60;3.20;;;;;;;8.19;90.82;100452.41;4979636;28;20129;-66
2021/11/24 05:54:50;;;;;;;14.55;2.45;;;;;;;8.24;91.10;100449.81;4964879;29;20048;-71
2021/11/24 05:57:16;;;;;;;23.10;2.80;;;;;;;8.12;90.71;100434.28;4964822;29;20035;-69
2021/11/24 05:59:42;;;;;;;18.92;2.60;;;;;;;8.15;90.72;100440.34;4964941;29;20028;-69
2021/11/24 06:02:08;;;;;;;17.50;2.80;;;;;;;8.09;90.71;100427.41;4964652;29;20031;-71
2021/11/24 06:04:33;;;;;;;19.83;2.58;;;;;;;8.25;90.76;100445.53;4964950;28;20023;-72
2021/11/24 06:06:59;;;;;;;19.00;2.28;;;;;;;8.11;90.55;100427.41;4965083;29;20120;-71
2021/11/24 06:09:24;;;;;;;23.50;3.42;;;;;;;8.16;90.38;100442.06;4964908;29;20087;-72
2021/11/24 06:11:49;;;;;;;16.10;2.47;;;;;;;8.14;90.88;100448.97;4964621;29;20015;-70
2021/11/24 06:14:15;;;;;;;26.48;3.38;;;;;;;8.18;91.07;100450.69;4964588;29;20510;-72
2021/11/24 06:16:40;;;;;;;21.48;3.17;;;;;;;8.21;91.14;100446.38;4964608;29;20095;-68
2021/11/24 06:19:06;;;;;;;22.23;3.88;;;;;;;8.20;91.05;100442.94;4947177;29;20028;-72
2021/11/24 06:21:31;;;;;;;16.42;2.88;;;;;;;8.33;90.43;100448.13;4964690;29;20412;-72
2021/11/24 06:23:56;;;;;;;16.95;2.85;;;;;;;8.32;90.72;100449.88;4964531;29;20023;-76
2021/11/24 06:26:23;;;;;;;14.60;2.03;;;;;;;8.27;90.91;100455.03;4965500;28;20413;-76
2021/11/24 06:28:48;;;;;;;24.65;3.22;;;;;;;8.24;90.73;100449.81;4968794;29;20499;-76
2021/11/24 06:31:14;;;;;;;16.67;3.20;;;;;;;8.28;90.86;100446.41;4968446;29;20082;-75
2021/11/24 06:33:39;;;;;;;14.77;2.72;;;;;;;8.29;90.96;100442.94;4968365;29;20110;-78
2021/11/24 06:36:05;;;;;;;13.27;3.42;;;;;;;8.30;90.64;100449.88;4968492;29;20074;-75
2021/11/24 06:38:31;;;;;;;13.82;3.90;;;;;;;8.24;90.59;100430.88;4968172;29;20086;-79
2021/11/24 06:40:56;;;;;;;14.02;3.08;;;;;;;8.34;90.48;100444.69;4982743;28;20028;-78
2021/11/24 06:43:21;;;;;;;18.35;2.50;;;;;;;8.30;90.36;100441.22;4967297;29;20019;-79
2021/11/24 06:45:47;;;;;;;20.38;3.40;;;;;;;8.36;90.56;100451.59;4968130;29;20019;-78
2021/11/24 06:48:12;;;;;;;19.27;3.03;;;;;;;8.40;90.68;100448.13;4967898;29;20024;-76
2021/11/24 06:50:38;;;;;;;24.40;2.95;;;;;;;8.40;90.83;100455.88;4967855;29;20015;-77
2021/11/24 06:53:03;;;;;;;16.02;2.47;;;;;;;8.39;90.44;100438.66;4967218;29;20027;-76
2021/11/24 06:55:29;;;;;;;16.75;2.72;;;;;;;8.48;90.52;100453.31;4967459;29;20079;-77
2021/11/24 06:57:54;;;;;;;13.82;2.20;;;;;;;8.46;90.67;100433.47;4967641;29;20054;-76
2021/11/24 07:00:20;;;;;;;15.40;2.95;;;;;;;8.49;90.80;100449.88;4967821;29;20029;-76
2021/11/24 07:02:45;;;;;;;14.30;2.65;;;;;;;8.57;90.90;100457.69;4967221;29;20102;-74
2021/11/24 07:05:12;;;;;;;18.85;3.17;;;;;;;8.61;90.75;100454.22;4967333;29;20348;-73
2021/11/24 07:07:38;;;;;;;13.35;2.35;;;;;;;8.57;91.00;100441.28;4967465;29;20047;-74
2021/11/24 07:10:05;;;;;;;20.50;2.72;;;;;;;8.59;90.64;100442.16;4966371;29;20018;-78
2021/11/24 07:12:30;;;;;;;18.90;3.97;;;;;;;8.62;90.54;100450.78;4967124;29;20023;-78
2021/11/24 07:14:56;;;;;;;22.42;2.92;;;;;;;8.72;90.60;100464.56;4967459;29;20029;-75
2021/11/24 07:17:23;;;;;;;11.43;3.33;;;;;;;8.63;90.79;100452.50;4966597;29;20047;-77
2021/11/24 07:19:48;;;;;;;26.58;3.42;;;;;;;8.75;90.60;100472.38;4967017;29;20078;-77
2021/11/24 07:22:14;;;;;;;12.25;2.38;;;;;;;8.73;91.19;100462.84;4967393;29;20035;-77
2021/11/24 07:24:40;;;;;;;16.13;2.38;;;;;;;8.82;90.84;100467.19;4968280;29;20035;-75
2021/11/24 07:27:05;;;;;;;18.38;3.33;;;;;;;8.85;90.47;100468.03;4968076;29;20171;-77
2021/11/24 07:29:31;;;;;;;14.50;2.53;;;;;;;8.75;90.81;100458.53;4968449;29;20379;-76
2021/11/24 07:31:56;;;;;;;21.60;4.32;;;;;;;8.91;90.53;100472.34;4967898;29;20035;-77
2021/11/24 07:34:21;;;;;;;24.70;4.95;;;;;;;8.88;90.69;100468.03;4971367;29;20015;-78
2021/11/24 07:36:47;;;;;;;26.70;3.47;;;;;;;8.91;90.55;100462.00;4971370;29;20034;-76
2021/11/24 07:39:12;;;;;;;18.67;3.35;;;;;;;8.93;90.38;100468.88;4966549;28;20090;-77
2021/11/24 07:41:38;;;;;;;27.40;3.90;;;;;;;8.91;90.58;100464.59;4967166;29;20054;-77
2021/11/24 07:44:04;;;;;;;25.10;5.45;;;;;;;8.96;90.12;100469.75;4968044;29;20023;-77
2021/11/24 07:46:30;;;;;;;25.15;4.15;;;;;;;8.97;90.54;100466.28;4967068;29;20074;-78
2021/11/24 07:48:57;;;;;;;26.42;3.75;;;;;;;8.87;90.65;100458.53;4966765;29;20023;-78
2021/11/24 07:51:23;;;;;;;21.73;3.25;;;;;;;8.99;90.42;100469.75;4966840;29;20023;-78
2021/11/24 07:53:48;;;;;;;17.83;2.60;;;;;;;9.01;90.12;100468.03;4966032;29;20023;-78
2021/11/24 07:56:14;;;;;;;13.82;2.30;;;;;;;8.98;89.82;100463.69;4966525;29;20039;-78
2021/11/24 07:58:42;;;;;;;15.77;2.83;;;;;;;8.92;90.23;100469.75;4966943;29;20042;-78
2021/11/24 08:01:11;;;;;;;26.45;2.88;;;;;;;8.92;89.94;100451.63;4966805;29;20030;-76
2021/11/24 08:03:37;;;;;;;13.40;2.60;;;;;;;8.91;89.35;100452.47;4966594;29;20034;-76
2021/11/24 08:06:03;;;;;;;18.63;3.80;;;;;;;8.86;89.04;100459.41;4966192;29;20030;-75
2021/11/24 08:08:28;;;;;;;12.18;2.90;;;;;;;8.82;88.93;100449.91;4966807;29;20053;-76
2021/11/24 08:10:54;;;;;;;20.08;5.13;;;;;;;8.92;88.90;100461.13;4966563;29;20499;-75
2021/11/24 08:13:21;;;;;;;16.90;3.60;;;;;;;8.81;88.67;100435.25;4948808;29;20063;-75
2021/11/24 08:15:47;;;;;;;15.80;3.03;;;;;;;8.92;88.60;100453.34;4966543;29;20051;-77
2021/11/24 08:18:12;;;;;;;14.30;2.45;;;;;;;8.92;88.76;100456.81;4966100;29;20043;-77
2021/11/24 08:20:37;;;;;;;17.67;2.13;;;;;;;8.89;88.40;100455.94;4965789;29;20077;-76
2021/11/24 08:23:03;;;;;;;15.45;3.47;;;;;;;8.91;88.04;100462.00;4948369;29;20024;-76
2021/11/24 08:25:29;;;;;;;9.88;2.40;;;;;;;8.90;87.75;100445.59;4966109;29;20550;-76
2021/11/24 08:27:54;;;;;;;18.75;2.38;;;;;;;8.97;87.55;100458.53;4966117;29;20419;-75
2021/11/24 08:30:22;;;;;;;11.02;2.03;;;;;;;9.04;86.98;100431.78;4965787;29;20191;-75
2021/11/24 08:32:48;;;;;;;14.80;2.53;;;;;;;8.93;86.97;100442.13;4965407;29;20027;-78
2021/11/24 08:35:15;;;;;;;12.50;1.73;;;;;;;8.90;87.25;100434.38;4966242;29;20023;-75
2021/11/24 08:37:40;;;;;;;10.40;3.03;;;;;;;8.79;86.76;100445.59;4966027;29;20550;-76
2021/11/24 08:40:06;;;;;;;15.82;2.88;;;;;;;8.93;87.00;100455.94;4966007;29;20035;-76
2021/11/24 08:42:32;;;;;;;15.35;2.22;;;;;;;8.91;86.74;100457.66;4947951;29;20033;-73
2021/11/24 08:44:57;;;;;;;11.98;2.50;;;;;;;8.93;86.75;100462.84;4964285;29;20027;-78
2021/11/24 08:47:22;;;;;;;14.48;2.38;;;;;;;8.95;86.58;100453.34;4965831;29;20085;-78
2021/11/24 08:49:48;;;;;;;13.23;1.98;;;;;;;8.95;87.25;100449.88;4947009;29;20023;-77
2021/11/24 08:52:14;;;;;;;16.92;2.67;;;;;;;8.89;87.14;100453.34;4965676;29;20027;-77
2021/11/24 08:54:39;;;;;;;12.15;2.00;;;;;;;8.99;86.89;100457.69;4965663;29;20038;-77
2021/11/24 08:57:06;;;;;;;17.27;2.30;;;;;;;9.03;86.66;100461.97;4965297;29;20045;-77
2021/11/24 08:59:33;;;;;;;9.45;2.13;;;;;;;9.08;86.87;100461.09;4965277;29;20031;-78
2021/11/24 09:01:58;;;;;;;12.60;2.03;;;;;;;9.09;86.66;100450.75;4965777;29;20046;-78
2021/11/24 09:04:24;;;;;;;14.60;2.85;;;;;;;9.10;86.97;100470.63;4965624;29;20118;-78
2021/11/24 09:06:49;;;;;;;10.50;2.05;;;;;;;9.16;87.00;100455.06;4965434;29;20039;-77
2021/11/24 09:09:15;;;;;;;20.42;2.90;;;;;;;9.05;86.96;100441.25;4965551;29;20107;-77
2021/11/24 09:11:40;;;;;;;10.85;2.13;;;;;;;9.17;86.94;100456.78;4965497;29;20023;-77
2021/11/24 09:14:06;;;;;;;9.55;2.30;;;;;;;9.11;87.05;100446.44;4965483;29;20038;-78
2021/11/24 09:16:32;;;;;;;16.05;2.33;;;;;;;9.21;86.79;100443.81;4965392;29;20522;-79
2021/11/24 09:18:58;;;;;;;14.45;3.10;;;;;;;9.12;86.22;100440.38;4965035;29;20051;-79
2021/11/24 09:21:24;;;;;;;15.13;2.53;;;;;;;9.05;85.33;100449.91;4965337;29;20037;-78
2021/11/24 09:23:56;;;;;;;18.85;2.17;;;;;;;9.14;85.58;100459.38;4965244;29;20361;-79
2021/11/24 09:29:04;;;;;;;13.68;2.53;;;;;;;9.09;85.48;100449.91;4965296;29;20074;-78
2021/11/24 09:31:29;;;;;;;13.80;3.13;;;;;;;9.13;85.04;100457.66;4965040;29;20196;-78
2021/11/24 09:33:54;;;;;;;17.35;2.30;;;;;;;9.24;85.46;100472.31;4965044;29;20034;-79
2021/11/24 09:36:20;;;;;;;10.27;2.08;;;;;;;9.28;85.55;100471.44;4965052;29;20029;-78
2021/11/24 09:38:45;;;;;;;11.25;1.83;;;;;;;9.23;85.06;100457.63;4965078;29;20034;-78
2021/11/24 09:41:11;;;;;;;18.00;2.88;;;;;;;9.32;84.26;100467.09;4964972;29;20062;-79
2021/11/24 09:43:43;;;;;;;12.75;2.25;;;;;;;9.31;84.21;100463.66;4964675;29;20110;-78
2021/11/24 09:46:09;;;;;;;15.40;2.17;;;;;;;9.36;84.90;100474.03;4964979;29;20085;-78
2021/11/24 09:48:35;;;;;;;15.98;1.80;;;;;;;9.32;85.06;100465.38;4964726;29;20035;-77
2021/11/24 09:51:01;;;;;;;16.38;2.33;;;;;;;9.31;83.79;100458.50;4964768;29;20046;-78
2021/11/24 09:53:28;;;;;;;22.42;3.40;;;;;;;9.23;84.36;100458.50;4964682;29;20295;-77
2021/11/24 09:55:53;;;;;;;10.82;2.53;;;;;;;9.25;84.12;100464.53;4963665;29;20058;-78
2021/11/24 09:58:18;;;;;;;11.65;3.60;;;;;;;9.21;83.88;100457.63;4964560;29;20023;-77
2021/11/24 10:00:45;;;;;;;16.52;2.22;;;;;;;9.13;83.95;100439.53;4964978;28;20053;-77
2021/11/24 10:03:10;;;;;;;10.45;2.58;;;;;;;9.13;82.60;100447.31;4968790;29;20042;-74
2021/11/24 10:05:36;;;;;;;14.63;3.65;;;;;;;9.35;83.03;100457.59;4969126;29;20037;-74
2021/11/24 10:08:03;;;;;;;13.65;2.83;;;;;;;9.32;82.65;100449.84;4968872;29;20035;-76
2021/11/24 10:10:28;;;;;;;10.23;1.70;;;;;;;9.29;82.82;100442.06;4969096;29;20048;-74
2021/11/24 10:12:55;;;;;;;11.95;2.00;;;;;;;9.35;82.09;100457.59;4968612;29;20098;-75
2021/11/24 10:15:41;;;;;;;13.45;1.63;;;;;;;9.37;82.21;100455.00;4967377;29;20024;-74
2021/11/24 10:18:31;;;;;;;13.23;2.50;;;;;;;9.36;82.78;100448.13;4968390;29;20055;-71
2021/11/24 10:21:10;;;;;;;10.05;1.92;;;;;;;9.37;82.69;100442.06;4960571;28;20043;-71
2021/11/24 10:23:37;;;;;;;10.25;1.67;;;;;;;9.27;81.92;100438.63;4968707;29;20020;-72
2021/11/24 10:26:21;;;;;;;17.15;2.28;;;;;;;9.26;82.19;100429.13;4968669;29;20107;-72
2021/11/24 10:28:56;;;;;;;14.40;1.80;;;;;;;9.41;82.79;100435.97;4968499;29;20033;-73
2021/11/24 10:31:33;;;;;;;15.32;2.33;;;;;;;9.65;82.63;100435.03;4968584;29;20027;-70
2021/11/24 10:33:59;;;;;;;10.27;2.05;;;;;;;9.65;81.75;100424.66;4968514;29;20057;-71
2021/11/24 10:36:25;;;;;;;12.15;1.50;;;;;;;9.60;82.02;100431.59;4968497;29;20027;-71
2021/11/24 10:38:52;;;;;;;5.72;1.23;;;;;;;9.47;80.98;100414.38;4968323;29;20041;-71
2021/11/24 10:41:28;;;;;;;9.02;1.50;;;;;;;9.53;80.72;100432.50;4968260;29;20031;-72
2021/11/24 10:43:53;;;;;;;7.32;1.67;;;;;;;9.74;81.74;100428.09;4968278;29;20031;-72
2021/11/24 10:46:23;;;;;;;5.68;1.83;;;;;;;9.94;81.36;100393.41;4968181;29;20027;-72
2021/11/24 10:49:08;;;;;;;11.48;1.40;;;;;;;10.14;78.91;100414.91;4951063;29;20019;-72
2021/11/24 10:51:38;;;;;;;3.78;0.95;;;;;;;10.27;79.71;100413.06;4968090;29;20027;-71
2021/11/24 10:54:23;;;;;;;8.88;1.50;;;;;;;10.14;78.72;100420.09;4967838;29;20023;-71
2021/11/24 10:57:08;;;;;;;8.50;1.55;;;;;;;9.98;78.69;100410.69;4967486;28;20050;-71
2021/11/24 10:59:39;;;;;;;6.63;1.50;;;;;;;9.90;79.71;100415.91;4967997;29;20034;-70
2021/11/24 11:02:25;;;;;;;9.80;1.60;;;;;;;9.78;80.15;100406.47;4967903;29;20027;-70
2021/11/24 11:05:09;;;;;;;7.65;1.40;;;;;;;9.60;78.77;100399.66;4968069;29;20038;-71
2021/11/24 11:07:38;;;;;;;7.18;1.13;;;;;;;9.46;78.23;100402.28;4950308;29;20066;-70
2021/11/24 11:10:09;;;;;;;5.88;1.17;;;;;;;9.35;78.13;100402.31;4967502;29;20034;-71
2021/11/24 11:12:36;;;;;;;4.63;1.20;;;;;;;9.29;77.88;100391.13;4966386;28;20030;-72
2021/11/24 11:15:23;;;;;;;8.23;0.90;;;;;;;9.26;78.18;100390.28;4966736;29;20261;-72
2021/11/24 11:18:01;;;;;;;7.47;1.42;;;;;;;9.30;78.61;100386.78;4967737;29;20050;-72
2021/11/24 11:20:37;;;;;;;8.00;1.48;;;;;;;9.22;78.52;100370.44;4966280;29;20031;-72
2021/11/24 11:23:07;;;;;;;6.00;1.20;;;;;;;9.30;79.23;100386.78;4950193;29;20058;-72
2021/11/24 11:25:34;;;;;;;4.80;1.77;;;;;;;9.29;78.23;100385.94;4967279;29;20030;-70
2021/11/24 11:28:01;;;;;;;7.13;1.02;;;;;;;9.26;77.15;100379.91;4967243;29;20363;-71
2021/11/24 11:30:28;;;;;;;5.00;1.25;;;;;;;9.24;77.45;100386.81;4967347;29;20534;-73